sensor_id;sensor_type;location;lat;lon;timestamp;temperature;humidity
18160;DHT22;9205;52.032;4.314;2023-11-19T00:02:07;14.10;99.90
18160;DHT22;9205;52.032;4.314;2023-11-19T00:04:36;14.10;99.90
18160;DHT22;9205;52.032;4.314;2023-11-19T00:07:04;14.00;99.90
18160;DHT22;9205;52.032;4.314;2023-11-19T00:09:33;13.90;99.90
18160;DHT22;9205;52.032;4.314;2023-11-19T00:12:03;13.80;99.90
18160;DHT22;9205;52.032;4.314;2023-11-19T00:14:31;13.50;99.90
18160;DHT22;9205;52.032;4.314;2023-11-19T00:16:59;14.10;99.90
18160;DHT22;9205;52.032;4.314;2023-11-19T00:19:26;13.80;99.90
18160;DHT22;9205;52.032;4.314;2023-11-19T00:21:53;13.40;99.90
18160;DHT22;9205;52.032;4.314;2023-11-19T00:24:21;14.00;99.90
18160;DHT22;9205;52.032;4.314;2023-11-19T00:26:48;13.90;99.90
18160;DHT22;9205;52.032;4.314;2023-11-19T00:29:15;13.90;99.90
18160;DHT22;9205;52.032;4.314;2023-11-19T00:31:44;13.60;99.90
18160;DHT22;9205;52.032;4.314;2023-11-19T00:34:13;13.90;99.90
18160;DHT22;9205;52.032;4.314;2023-11-19T00:36:40;13.80;99.90
18160;DHT22;9205;52.032;4.314;2023-11-19T00:39:07;13.30;99.90
18160;DHT22;9205;52.032;4.314;2023-11-19T00:41:34;13.80;99.90
18160;DHT22;9205;52.032;4.314;2023-11-19T00:44:01;13.30;99.90
18160;DHT22;9205;52.032;4.314;2023-11-19T00:46:28;13.50;99.90
18160;DHT22;9205;52.032;4.314;2023-11-19T00:48:56;13.50;99.90
18160;DHT22;9205;52.032;4.314;2023-11-19T00:51:26;13.30;99.90
18160;DHT22;9205;52.032;4.314;2023-11-19T00:53:54;13.60;99.90
18160;DHT22;9205;52.032;4.314;2023-11-19T00:56:21;13.60;99.90
18160;DHT22;9205;52.032;4.314;2023-11-19T00:58:48;13.20;99.90
18160;DHT22;9205;52.032;4.314;2023-11-19T01:01:15;13.20;99.90
18160;DHT22;9205;52.032;4.314;2023-11-19T01:03:43;13.30;99.90
18160;DHT22;9205;52.032;4.314;2023-11-19T01:06:10;13.70;99.90
18160;DHT22;9205;52.032;4.314;2023-11-19T01:08:38;13.20;99.90
18160;DHT22;9205;52.032;4.314;2023-11-19T01:11:06;13.20;99.90
18160;DHT22;9205;52.032;4.314;2023-11-19T01:13:34;13.30;99.90
18160;DHT22;9205;52.032;4.314;2023-11-19T01:16:02;13.50;99.90
18160;DHT22;9205;52.032;4.314;2023-11-19T01:18:29;13.00;99.90
18160;DHT22;9205;52.032;4.314;2023-11-19T01:20:57;13.20;99.90
18160;DHT22;9205;52.032;4.314;2023-11-19T01:23:24;13.00;99.90
18160;DHT22;9205;52.032;4.314;2023-11-19T01:25:53;13.30;99.90
18160;DHT22;9205;52.032;4.314;2023-11-19T01:28:20;13.20;99.90
18160;DHT22;9205;52.032;4.314;2023-11-19T01:30:50;13.40;99.90
18160;DHT22;9205;52.032;4.314;2023-11-19T01:33:18;13.00;99.90
18160;DHT22;9205;52.032;4.314;2023-11-19T01:35:45;12.90;99.90
18160;DHT22;9205;52.032;4.314;2023-11-19T01:38:12;13.10;99.90
18160;DHT22;9205;52.032;4.314;2023-11-19T01:40:40;13.00;99.90
18160;DHT22;9205;52.032;4.314;2023-11-19T01:43:09;13.20;99.90
18160;DHT22;9205;52.032;4.314;2023-11-19T01:45:37;12.80;99.90
18160;DHT22;9205;52.032;4.314;2023-11-19T01:48:06;13.10;99.90
18160;DHT22;9205;52.032;4.314;2023-11-19T01:50:37;13.20;99.90
18160;DHT22;9205;52.032;4.314;2023-11-19T01:53:04;13.00;99.90
18160;DHT22;9205;52.032;4.314;2023-11-19T01:55:31;12.70;99.90
18160;DHT22;9205;52.032;4.314;2023-11-19T01:58:00;12.80;99.90
18160;DHT22;9205;52.032;4.314;2023-11-19T02:00:30;12.70;99.90
18160;DHT22;9205;52.032;4.314;2023-11-19T02:03:00;13.10;99.90
18160;DHT22;9205;52.032;4.314;2023-11-19T02:05:29;13.00;99.90
18160;DHT22;9205;52.032;4.314;2023-11-19T02:07:58;12.60;99.90
18160;DHT22;9205;52.032;4.314;2023-11-19T02:10:25;12.60;99.90
18160;DHT22;9205;52.032;4.314;2023-11-19T02:12:53;12.80;99.90
18160;DHT22;9205;52.032;4.314;2023-11-19T02:15:21;12.70;99.90
18160;DHT22;9205;52.032;4.314;2023-11-19T02:17:51;12.90;99.90
18160;DHT22;9205;52.032;4.314;2023-11-19T02:20:18;12.60;99.90
18160;DHT22;9205;52.032;4.314;2023-11-19T02:22:47;12.60;99.90
18160;DHT22;9205;52.032;4.314;2023-11-19T02:25:22;12.50;99.90
18160;DHT22;9205;52.032;4.314;2023-11-19T02:27:59;12.80;99.90
18160;DHT22;9205;52.032;4.314;2023-11-19T02:30:28;12.60;99.90
18160;DHT22;9205;52.032;4.314;2023-11-19T02:32:55;12.40;99.90
18160;DHT22;9205;52.032;4.314;2023-11-19T02:35:24;12.80;99.90
18160;DHT22;9205;52.032;4.314;2023-11-19T02:37:52;12.70;99.90
18160;DHT22;9205;52.032;4.314;2023-11-19T02:40:19;12.70;99.90
18160;DHT22;9205;52.032;4.314;2023-11-19T02:42:50;12.40;99.90
18160;DHT22;9205;52.032;4.314;2023-11-19T02:45:18;12.70;99.90
18160;DHT22;9205;52.032;4.314;2023-11-19T02:47:47;12.30;99.90
18160;DHT22;9205;52.032;4.314;2023-11-19T02:50:15;12.80;99.90
18160;DHT22;9205;52.032;4.314;2023-11-19T02:52:42;12.30;99.90
18160;DHT22;9205;52.032;4.314;2023-11-19T02:55:12;12.50;99.90
18160;DHT22;9205;52.032;4.314;2023-11-19T02:57:40;12.70;99.90
18160;DHT22;9205;52.032;4.314;2023-11-19T03:00:14;12.70;99.90
18160;DHT22;9205;52.032;4.314;2023-11-19T03:02:44;12.70;99.90
18160;DHT22;9205;52.032;4.314;2023-11-19T03:05:14;12.70;99.90
18160;DHT22;9205;52.032;4.314;2023-11-19T03:07:42;12.40;99.90
18160;DHT22;9205;52.032;4.314;2023-11-19T03:10:10;12.50;99.90
18160;DHT22;9205;52.032;4.314;2023-11-19T03:12:39;12.20;99.90
18160;DHT22;9205;52.032;4.314;2023-11-19T03:15:07;12.50;99.90
18160;DHT22;9205;52.032;4.314;2023-11-19T03:17:36;12.60;99.90
18160;DHT22;9205;52.032;4.314;2023-11-19T03:20:07;12.60;99.90
18160;DHT22;9205;52.032;4.314;2023-11-19T03:22:37;12.50;99.90
18160;DHT22;9205;52.032;4.314;2023-11-19T03:25:04;12.20;99.90
18160;DHT22;9205;52.032;4.314;2023-11-19T03:27:34;12.50;99.90
18160;DHT22;9205;52.032;4.314;2023-11-19T03:30:02;12.50;99.90
18160;DHT22;9205;52.032;4.314;2023-11-19T03:32:31;12.20;99.90
18160;DHT22;9205;52.032;4.314;2023-11-19T03:34:58;12.50;99.90
18160;DHT22;9205;52.032;4.314;2023-11-19T03:37:27;12.20;99.90
18160;DHT22;9205;52.032;4.314;2023-11-19T03:39:54;12.40;99.90
18160;DHT22;9205;52.032;4.314;2023-11-19T03:42:25;12.30;99.90
18160;DHT22;9205;52.032;4.314;2023-11-19T03:44:53;12.30;99.90
18160;DHT22;9205;52.032;4.314;2023-11-19T03:47:21;12.30;99.90
18160;DHT22;9205;52.032;4.314;2023-11-19T03:49:49;12.40;99.90
18160;DHT22;9205;52.032;4.314;2023-11-19T03:52:17;12.30;99.90
18160;DHT22;9205;52.032;4.314;2023-11-19T03:54:46;12.10;99.90
18160;DHT22;9205;52.032;4.314;2023-11-19T03:57:13;12.10;99.90
18160;DHT22;9205;52.032;4.314;2023-11-19T03:59:41;12.30;99.90
18160;DHT22;9205;52.032;4.314;2023-11-19T04:02:08;12.10;99.90
18160;DHT22;9205;52.032;4.314;2023-11-19T04:04:36;12.30;99.90
18160;DHT22;9205;52.032;4.314;2023-11-19T04:07:04;12.40;99.90
18160;DHT22;9205;52.032;4.314;2023-11-19T04:09:32;12.20;99.90
18160;DHT22;9205;52.032;4.314;2023-11-19T04:12:01;12.10;99.90
18160;DHT22;9205;52.032;4.314;2023-11-19T04:14:28;12.40;99.90
18160;DHT22;9205;52.032;4.314;2023-11-19T04:16:55;12.20;99.90
18160;DHT22;9205;52.032;4.314;2023-11-19T04:19:22;12.40;99.90
18160;DHT22;9205;52.032;4.314;2023-11-19T04:21:50;12.50;99.90
18160;DHT22;9205;52.032;4.314;2023-11-19T04:24:17;12.20;99.90
18160;DHT22;9205;52.032;4.314;2023-11-19T04:26:45;12.30;99.90
18160;DHT22;9205;52.032;4.314;2023-11-19T04:29:15;12.40;99.90
18160;DHT22;9205;52.032;4.314;2023-11-19T04:31:44;12.20;99.90
18160;DHT22;9205;52.032;4.314;2023-11-19T04:34:12;12.20;99.90
18160;DHT22;9205;52.032;4.314;2023-11-19T04:36:39;12.40;99.90
18160;DHT22;9205;52.032;4.314;2023-11-19T04:39:06;12.30;99.90
18160;DHT22;9205;52.032;4.314;2023-11-19T04:41:45;12.10;99.90
18160;DHT22;9205;52.032;4.314;2023-11-19T04:44:15;12.30;99.90
18160;DHT22;9205;52.032;4.314;2023-11-19T04:46:43;12.30;99.90
18160;DHT22;9205;52.032;4.314;2023-11-19T04:49:11;12.30;99.90
18160;DHT22;9205;52.032;4.314;2023-11-19T04:51:40;12.30;99.90
18160;DHT22;9205;52.032;4.314;2023-11-19T04:54:08;12.20;99.90
18160;DHT22;9205;52.032;4.314;2023-11-19T04:56:35;12.30;99.90
18160;DHT22;9205;52.032;4.314;2023-11-19T04:59:03;12.40;99.90
18160;DHT22;9205;52.032;4.314;2023-11-19T05:01:32;12.20;99.90
18160;DHT22;9205;52.032;4.314;2023-11-19T05:04:00;12.30;99.90
18160;DHT22;9205;52.032;4.314;2023-11-19T05:06:28;12.40;99.90
18160;DHT22;9205;52.032;4.314;2023-11-19T05:08:55;12.40;99.90
18160;DHT22;9205;52.032;4.314;2023-11-19T05:11:23;12.30;99.90
18160;DHT22;9205;52.032;4.314;2023-11-19T05:13:50;12.20;99.90
18160;DHT22;9205;52.032;4.314;2023-11-19T05:16:18;12.30;99.90
18160;DHT22;9205;52.032;4.314;2023-11-19T05:18:47;12.20;99.90
18160;DHT22;9205;52.032;4.314;2023-11-19T05:21:15;12.20;99.90
18160;DHT22;9205;52.032;4.314;2023-11-19T05:23:43;12.30;99.90
18160;DHT22;9205;52.032;4.314;2023-11-19T05:26:17;12.20;99.90
18160;DHT22;9205;52.032;4.314;2023-11-19T05:28:46;12.10;99.90
18160;DHT22;9205;52.032;4.314;2023-11-19T05:31:14;12.20;99.90
18160;DHT22;9205;52.032;4.314;2023-11-19T05:33:42;12.10;99.90
18160;DHT22;9205;52.032;4.314;2023-11-19T05:36:12;12.20;99.90
18160;DHT22;9205;52.032;4.314;2023-11-19T05:38:40;12.20;99.90
18160;DHT22;9205;52.032;4.314;2023-11-19T05:41:07;12.20;99.90
18160;DHT22;9205;52.032;4.314;2023-11-19T05:43:34;12.20;99.90
18160;DHT22;9205;52.032;4.314;2023-11-19T05:46:01;12.10;99.90
18160;DHT22;9205;52.032;4.314;2023-11-19T05:48:29;12.10;99.90
18160;DHT22;9205;52.032;4.314;2023-11-19T05:50:56;12.20;99.90
18160;DHT22;9205;52.032;4.314;2023-11-19T05:53:24;12.30;99.90
18160;DHT22;9205;52.032;4.314;2023-11-19T05:55:51;12.20;99.90
18160;DHT22;9205;52.032;4.314;2023-11-19T05:58:24;12.20;99.90
18160;DHT22;9205;52.032;4.314;2023-11-19T06:00:54;12.20;99.90
18160;DHT22;9205;52.032;4.314;2023-11-19T06:03:22;12.10;99.90
18160;DHT22;9205;52.032;4.314;2023-11-19T06:05:49;12.00;99.90
18160;DHT22;9205;52.032;4.314;2023-11-19T06:08:17;12.00;99.90
18160;DHT22;9205;52.032;4.314;2023-11-19T06:10:47;12.20;99.90
18160;DHT22;9205;52.032;4.314;2023-11-19T06:13:16;12.00;99.90
18160;DHT22;9205;52.032;4.314;2023-11-19T06:15:43;12.10;99.90
18160;DHT22;9205;52.032;4.314;2023-11-19T06:18:11;12.20;99.90
18160;DHT22;9205;52.032;4.314;2023-11-19T06:20:38;12.20;99.90
18160;DHT22;9205;52.032;4.314;2023-11-19T06:23:05;12.30;99.90
18160;DHT22;9205;52.032;4.314;2023-11-19T06:25:32;12.20;99.90
18160;DHT22;9205;52.032;4.314;2023-11-19T06:28:02;12.20;99.90
18160;DHT22;9205;52.032;4.314;2023-11-19T06:30:30;12.30;99.90
18160;DHT22;9205;52.032;4.314;2023-11-19T06:32:58;12.30;99.90
18160;DHT22;9205;52.032;4.314;2023-11-19T06:35:25;12.30;99.90
18160;DHT22;9205;52.032;4.314;2023-11-19T06:37:53;12.10;99.90
18160;DHT22;9205;52.032;4.314;2023-11-19T06:40:20;12.20;99.90
18160;DHT22;9205;52.032;4.314;2023-11-19T06:42:47;12.30;99.90
18160;DHT22;9205;52.032;4.314;2023-11-19T06:45:16;12.30;99.90
18160;DHT22;9205;52.032;4.314;2023-11-19T06:47:43;12.20;99.90
18160;DHT22;9205;52.032;4.314;2023-11-19T06:50:10;12.30;99.90
18160;DHT22;9205;52.032;4.314;2023-11-19T06:52:38;12.40;99.90
18160;DHT22;9205;52.032;4.314;2023-11-19T06:55:06;12.30;99.90
18160;DHT22;9205;52.032;4.314;2023-11-19T06:57:33;12.50;99.90
18160;DHT22;9205;52.032;4.314;2023-11-19T07:00:01;12.40;99.90
18160;DHT22;9205;52.032;4.314;2023-11-19T07:02:30;12.50;99.90
18160;DHT22;9205;52.032;4.314;2023-11-19T07:04:57;12.60;99.90
18160;DHT22;9205;52.032;4.314;2023-11-19T07:07:25;12.60;99.90
18160;DHT22;9205;52.032;4.314;2023-11-19T07:09:53;12.50;99.90
18160;DHT22;9205;52.032;4.314;2023-11-19T07:12:20;12.60;99.90
18160;DHT22;9205;52.032;4.314;2023-11-19T07:14:47;12.40;99.90
18160;DHT22;9205;52.032;4.314;2023-11-19T07:17:14;12.40;99.90
18160;DHT22;9205;52.032;4.314;2023-11-19T07:19:44;12.40;99.90
18160;DHT22;9205;52.032;4.314;2023-11-19T07:22:11;12.30;99.90
18160;DHT22;9205;52.032;4.314;2023-11-19T07:24:39;12.50;99.90
18160;DHT22;9205;52.032;4.314;2023-11-19T07:27:07;12.50;99.90
18160;DHT22;9205;52.032;4.314;2023-11-19T07:29:35;12.50;99.90
18160;DHT22;9205;52.032;4.314;2023-11-19T07:32:02;12.40;99.90
18160;DHT22;9205;52.032;4.314;2023-11-19T07:34:30;12.50;99.90
18160;DHT22;9205;52.032;4.314;2023-11-19T07:36:59;12.50;99.90
18160;DHT22;9205;52.032;4.314;2023-11-19T07:39:28;12.40;99.90
18160;DHT22;9205;52.032;4.314;2023-11-19T07:41:55;12.30;99.90
18160;DHT22;9205;52.032;4.314;2023-11-19T07:44:22;12.40;99.90
18160;DHT22;9205;52.032;4.314;2023-11-19T07:46:50;12.40;99.90
18160;DHT22;9205;52.032;4.314;2023-11-19T07:49:17;12.40;99.90
18160;DHT22;9205;52.032;4.314;2023-11-19T07:51:44;12.60;99.90
18160;DHT22;9205;52.032;4.314;2023-11-19T07:54:13;12.40;99.90
18160;DHT22;9205;52.032;4.314;2023-11-19T07:56:40;12.50;99.90
18160;DHT22;9205;52.032;4.314;2023-11-19T07:59:07;12.50;99.90
18160;DHT22;9205;52.032;4.314;2023-11-19T08:01:35;12.50;99.90
18160;DHT22;9205;52.032;4.314;2023-11-19T08:04:02;12.50;99.90
18160;DHT22;9205;52.032;4.314;2023-11-19T08:06:29;12.60;99.90
18160;DHT22;9205;52.032;4.314;2023-11-19T08:08:56;12.70;99.90
18160;DHT22;9205;52.032;4.314;2023-11-19T08:11:26;12.70;99.90
18160;DHT22;9205;52.032;4.314;2023-11-19T08:13:53;12.60;99.90
18160;DHT22;9205;52.032;4.314;2023-11-19T08:16:20;12.60;99.90
18160;DHT22;9205;52.032;4.314;2023-11-19T08:18:47;12.80;99.90
18160;DHT22;9205;52.032;4.314;2023-11-19T08:21:15;12.80;99.90
18160;DHT22;9205;52.032;4.314;2023-11-19T08:23:42;12.80;99.90
18160;DHT22;9205;52.032;4.314;2023-11-19T08:26:09;12.90;99.90
18160;DHT22;9205;52.032;4.314;2023-11-19T08:28:37;12.90;99.90
18160;DHT22;9205;52.032;4.314;2023-11-19T08:31:05;13.00;99.90
18160;DHT22;9205;52.032;4.314;2023-11-19T08:33:32;12.90;99.90
18160;DHT22;9205;52.032;4.314;2023-11-19T08:35:59;13.00;99.90
18160;DHT22;9205;52.032;4.314;2023-11-19T08:38:26;13.00;99.90
18160;DHT22;9205;52.032;4.314;2023-11-19T08:40:54;12.90;99.90
18160;DHT22;9205;52.032;4.314;2023-11-19T08:43:25;13.00;99.90
18160;DHT22;9205;52.032;4.314;2023-11-19T08:45:53;13.00;99.90
18160;DHT22;9205;52.032;4.314;2023-11-19T08:48:21;13.10;99.90
18160;DHT22;9205;52.032;4.314;2023-11-19T08:50:48;13.00;99.90
18160;DHT22;9205;52.032;4.314;2023-11-19T08:53:15;13.10;99.90
18160;DHT22;9205;52.032;4.314;2023-11-19T08:55:42;13.00;99.90
18160;DHT22;9205;52.032;4.314;2023-11-19T08:58:09;13.00;99.90
18160;DHT22;9205;52.032;4.314;2023-11-19T09:00:36;13.00;99.90
18160;DHT22;9205;52.032;4.314;2023-11-19T09:03:05;13.10;99.90
18160;DHT22;9205;52.032;4.314;2023-11-19T09:05:32;13.20;99.90
18160;DHT22;9205;52.032;4.314;2023-11-19T09:07:59;13.10;99.90
18160;DHT22;9205;52.032;4.314;2023-11-19T09:10:26;13.00;99.90
18160;DHT22;9205;52.032;4.314;2023-11-19T09:12:55;13.20;99.90
18160;DHT22;9205;52.032;4.314;2023-11-19T09:15:22;13.20;99.90
18160;DHT22;9205;52.032;4.314;2023-11-19T09:17:49;13.30;99.90
18160;DHT22;9205;52.032;4.314;2023-11-19T09:20:18;13.30;99.90
18160;DHT22;9205;52.032;4.314;2023-11-19T09:22:45;13.20;99.90
18160;DHT22;9205;52.032;4.314;2023-11-19T09:25:13;13.30;92.30
18160;DHT22;9205;52.032;4.314;2023-11-19T09:27:42;13.30;47.20
18160;DHT22;9205;52.032;4.314;2023-11-19T09:30:10;13.40;3.00
18160;DHT22;9205;52.032;4.314;2023-11-19T09:32:38;13.50;1.00
18160;DHT22;9205;52.032;4.314;2023-11-19T09:35:06;13.70;1.00
18160;DHT22;9205;52.032;4.314;2023-11-19T09:37:35;13.70;1.00
18160;DHT22;9205;52.032;4.314;2023-11-19T09:40:03;13.80;1.00
18160;DHT22;9205;52.032;4.314;2023-11-19T09:42:36;13.60;1.00
18160;DHT22;9205;52.032;4.314;2023-11-19T09:45:13;13.70;1.00
18160;DHT22;9205;52.032;4.314;2023-11-19T09:47:43;13.70;1.00
18160;DHT22;9205;52.032;4.314;2023-11-19T09:50:16;13.60;1.00
18160;DHT22;9205;52.032;4.314;2023-11-19T09:52:46;13.60;1.00
18160;DHT22;9205;52.032;4.314;2023-11-19T09:55:14;13.60;1.00
18160;DHT22;9205;52.032;4.314;2023-11-19T09:57:42;13.60;1.00
18160;DHT22;9205;52.032;4.314;2023-11-19T10:00:12;13.60;1.00
18160;DHT22;9205;52.032;4.314;2023-11-19T10:02:43;13.60;1.00
18160;DHT22;9205;52.032;4.314;2023-11-19T10:05:12;13.60;1.00
18160;DHT22;9205;52.032;4.314;2023-11-19T10:07:40;13.60;1.00
18160;DHT22;9205;52.032;4.314;2023-11-19T10:10:10;13.70;1.00
18160;DHT22;9205;52.032;4.314;2023-11-19T10:12:40;13.60;1.00
18160;DHT22;9205;52.032;4.314;2023-11-19T10:15:17;13.70;1.00
18160;DHT22;9205;52.032;4.314;2023-11-19T10:17:47;13.70;1.00
18160;DHT22;9205;52.032;4.314;2023-11-19T10:20:15;13.70;1.00
18160;DHT22;9205;52.032;4.314;2023-11-19T10:22:42;13.70;1.00
18160;DHT22;9205;52.032;4.314;2023-11-19T10:25:24;13.70;1.00
18160;DHT22;9205;52.032;4.314;2023-11-19T10:27:53;13.70;1.00
18160;DHT22;9205;52.032;4.314;2023-11-19T10:30:21;13.70;1.00
18160;DHT22;9205;52.032;4.314;2023-11-19T10:33:03;13.80;1.00
18160;DHT22;9205;52.032;4.314;2023-11-19T10:35:31;13.80;1.00
18160;DHT22;9205;52.032;4.314;2023-11-19T10:38:00;13.80;1.00
18160;DHT22;9205;52.032;4.314;2023-11-19T10:40:39;13.80;1.00
18160;DHT22;9205;52.032;4.314;2023-11-19T10:43:07;13.80;1.00
18160;DHT22;9205;52.032;4.314;2023-11-19T10:45:35;13.80;1.00
18160;DHT22;9205;52.032;4.314;2023-11-19T10:48:04;13.80;1.00
18160;DHT22;9205;52.032;4.314;2023-11-19T10:50:33;13.90;1.00
18160;DHT22;9205;52.032;4.314;2023-11-19T10:53:02;14.00;1.00
18160;DHT22;9205;52.032;4.314;2023-11-19T10:55:31;14.00;1.00
18160;DHT22;9205;52.032;4.314;2023-11-19T10:58:03;14.10;1.00
18160;DHT22;9205;52.032;4.314;2023-11-19T11:00:46;14.20;1.00
18160;DHT22;9205;52.032;4.314;2023-11-19T11:03:17;14.20;1.00
18160;DHT22;9205;52.032;4.314;2023-11-19T11:05:47;14.20;1.00
18160;DHT22;9205;52.032;4.314;2023-11-19T11:08:15;14.10;1.00
18160;DHT22;9205;52.032;4.314;2023-11-19T11:10:45;14.10;1.00
18160;DHT22;9205;52.032;4.314;2023-11-19T11:13:16;14.20;1.00
18160;DHT22;9205;52.032;4.314;2023-11-19T11:15:44;14.20;1.00
18160;DHT22;9205;52.032;4.314;2023-11-19T11:18:13;14.20;1.00
18160;DHT22;9205;52.032;4.314;2023-11-19T11:20:41;14.10;1.00
18160;DHT22;9205;52.032;4.314;2023-11-19T11:23:46;14.20;1.00
18160;DHT22;9205;52.032;4.314;2023-11-19T11:26:50;14.20;1.00
18160;DHT22;9205;52.032;4.314;2023-11-19T11:29:31;14.40;1.00
18160;DHT22;9205;52.032;4.314;2023-11-19T11:32:17;14.50;1.00
18160;DHT22;9205;52.032;4.314;2023-11-19T11:35:13;14.50;1.00
18160;DHT22;9205;52.032;4.314;2023-11-19T11:37:58;14.40;1.00
18160;DHT22;9205;52.032;4.314;2023-11-19T11:40:28;14.40;1.00
18160;DHT22;9205;52.032;4.314;2023-11-19T11:42:56;14.30;1.00
18160;DHT22;9205;52.032;4.314;2023-11-19T11:45:37;14.30;1.00
18160;DHT22;9205;52.032;4.314;2023-11-19T11:48:19;14.30;1.00
18160;DHT22;9205;52.032;4.314;2023-11-19T11:50:54;14.30;1.00
18160;DHT22;9205;52.032;4.314;2023-11-19T11:53:24;14.40;1.00
18160;DHT22;9205;52.032;4.314;2023-11-19T11:55:54;14.50;1.00
18160;DHT22;9205;52.032;4.314;2023-11-19T11:58:30;14.50;1.00
18160;DHT22;9205;52.032;4.314;2023-11-19T12:01:01;14.50;1.00
18160;DHT22;9205;52.032;4.314;2023-11-19T12:03:32;14.30;1.00
18160;DHT22;9205;52.032;4.314;2023-11-19T12:06:00;14.20;1.00
18160;DHT22;9205;52.032;4.314;2023-11-19T12:08:29;14.20;1.00
18160;DHT22;9205;52.032;4.314;2023-11-19T12:10:58;14.00;1.00
18160;DHT22;9205;52.032;4.314;2023-11-19T12:13:53;14.00;1.00
18160;DHT22;9205;52.032;4.314;2023-11-19T12:16:25;14.00;1.00
18160;DHT22;9205;52.032;4.314;2023-11-19T12:18:54;14.00;1.00
18160;DHT22;9205;52.032;4.314;2023-11-19T12:21:28;14.00;1.00
18160;DHT22;9205;52.032;4.314;2023-11-19T12:23:58;14.00;1.00
18160;DHT22;9205;52.032;4.314;2023-11-19T12:26:35;13.90;1.00
18160;DHT22;9205;52.032;4.314;2023-11-19T12:29:04;14.00;1.00
18160;DHT22;9205;52.032;4.314;2023-11-19T12:31:36;14.00;1.00
18160;DHT22;9205;52.032;4.314;2023-11-19T12:34:08;13.90;1.00
18160;DHT22;9205;52.032;4.314;2023-11-19T12:36:39;13.90;1.00
18160;DHT22;9205;52.032;4.314;2023-11-19T12:39:07;13.80;1.00
18160;DHT22;9205;52.032;4.314;2023-11-19T12:41:49;13.90;1.00
18160;DHT22;9205;52.032;4.314;2023-11-19T12:44:17;13.80;1.00
18160;DHT22;9205;52.032;4.314;2023-11-19T12:46:46;13.90;1.00
18160;DHT22;9205;52.032;4.314;2023-11-19T12:49:13;13.80;1.00
18160;DHT22;9205;52.032;4.314;2023-11-19T12:51:40;13.80;1.00
18160;DHT22;9205;52.032;4.314;2023-11-19T12:54:07;13.80;1.00
18160;DHT22;9205;52.032;4.314;2023-11-19T12:56:35;13.80;1.00
18160;DHT22;9205;52.032;4.314;2023-11-19T12:59:12;13.80;1.00
18160;DHT22;9205;52.032;4.314;2023-11-19T13:01:40;13.80;1.00
18160;DHT22;9205;52.032;4.314;2023-11-19T13:04:18;13.80;1.00
18160;DHT22;9205;52.032;4.314;2023-11-19T13:06:46;13.80;1.00
18160;DHT22;9205;52.032;4.314;2023-11-19T13:09:22;13.80;1.00
18160;DHT22;9205;52.032;4.314;2023-11-19T13:11:50;13.80;1.00
18160;DHT22;9205;52.032;4.314;2023-11-19T13:14:19;13.70;1.00
18160;DHT22;9205;52.032;4.314;2023-11-19T13:16:47;13.70;1.00
18160;DHT22;9205;52.032;4.314;2023-11-19T13:19:15;13.60;1.00
18160;DHT22;9205;52.032;4.314;2023-11-19T13:21:45;13.60;1.00
18160;DHT22;9205;52.032;4.314;2023-11-19T13:24:14;13.50;1.00
18160;DHT22;9205;52.032;4.314;2023-11-19T13:26:41;13.60;1.00
18160;DHT22;9205;52.032;4.314;2023-11-19T13:29:08;13.50;50.80
18160;DHT22;9205;52.032;4.314;2023-11-19T13:31:36;13.40;99.90
18160;DHT22;9205;52.032;4.314;2023-11-19T13:34:04;13.30;99.90
18160;DHT22;9205;52.032;4.314;2023-11-19T13:36:33;13.30;99.90
18160;DHT22;9205;52.032;4.314;2023-11-19T13:39:01;13.20;99.90
18160;DHT22;9205;52.032;4.314;2023-11-19T13:41:29;13.20;99.90
18160;DHT22;9205;52.032;4.314;2023-11-19T13:43:56;13.20;99.90
18160;DHT22;9205;52.032;4.314;2023-11-19T13:46:24;13.20;99.90
18160;DHT22;9205;52.032;4.314;2023-11-19T13:48:51;13.20;99.90
18160;DHT22;9205;52.032;4.314;2023-11-19T13:51:18;13.20;99.90
18160;DHT22;9205;52.032;4.314;2023-11-19T13:56:57;13.20;99.90
18160;DHT22;9205;52.032;4.314;2023-11-19T13:59:24;13.20;88.20
18160;DHT22;9205;52.032;4.314;2023-11-19T14:01:51;13.20;58.90
18160;DHT22;9205;52.032;4.314;2023-11-19T14:04:19;13.30;42.20
18160;DHT22;9205;52.032;4.314;2023-11-19T14:06:46;13.30;24.40
18160;DHT22;9205;52.032;4.314;2023-11-19T14:09:14;13.30;8.50
18160;DHT22;9205;52.032;4.314;2023-11-19T14:11:41;13.30;1.00
18160;DHT22;9205;52.032;4.314;2023-11-19T14:14:10;13.40;1.50
18160;DHT22;9205;52.032;4.314;2023-11-19T14:16:37;13.40;1.00
18160;DHT22;9205;52.032;4.314;2023-11-19T14:19:04;13.30;1.00
18160;DHT22;9205;52.032;4.314;2023-11-19T14:21:32;13.40;1.00
18160;DHT22;9205;52.032;4.314;2023-11-19T14:23:59;13.50;1.00
18160;DHT22;9205;52.032;4.314;2023-11-19T14:26:27;13.40;1.00
18160;DHT22;9205;52.032;4.314;2023-11-19T14:28:54;13.50;1.00
18160;DHT22;9205;52.032;4.314;2023-11-19T14:31:22;13.50;1.00
18160;DHT22;9205;52.032;4.314;2023-11-19T14:33:50;13.50;1.00
18160;DHT22;9205;52.032;4.314;2023-11-19T14:36:17;13.60;1.00
18160;DHT22;9205;52.032;4.314;2023-11-19T14:38:44;13.50;1.00
18160;DHT22;9205;52.032;4.314;2023-11-19T14:41:11;13.50;1.00
18160;DHT22;9205;52.032;4.314;2023-11-19T14:43:39;13.60;1.00
18160;DHT22;9205;52.032;4.314;2023-11-19T14:46:06;13.60;1.00
18160;DHT22;9205;52.032;4.314;2023-11-19T14:48:35;13.50;1.00
18160;DHT22;9205;52.032;4.314;2023-11-19T14:51:02;13.50;1.00
18160;DHT22;9205;52.032;4.314;2023-11-19T14:53:30;13.50;1.00
18160;DHT22;9205;52.032;4.314;2023-11-19T14:55:57;13.50;1.00
18160;DHT22;9205;52.032;4.314;2023-11-19T14:58:24;13.50;1.00
18160;DHT22;9205;52.032;4.314;2023-11-19T15:00:52;13.40;1.00
18160;DHT22;9205;52.032;4.314;2023-11-19T15:03:19;13.50;1.00
18160;DHT22;9205;52.032;4.314;2023-11-19T15:05:48;13.50;1.00
18160;DHT22;9205;52.032;4.314;2023-11-19T15:08:16;13.40;11.60
18160;DHT22;9205;52.032;4.314;2023-11-19T15:10:43;13.30;62.00
18160;DHT22;9205;52.032;4.314;2023-11-19T15:13:12;13.30;99.90
18160;DHT22;9205;52.032;4.314;2023-11-19T15:15:39;13.30;99.90
18160;DHT22;9205;52.032;4.314;2023-11-19T15:18:07;13.30;99.90
18160;DHT22;9205;52.032;4.314;2023-11-19T15:20:35;13.30;99.90
18160;DHT22;9205;52.032;4.314;2023-11-19T15:23:03;13.30;99.90
18160;DHT22;9205;52.032;4.314;2023-11-19T15:25:31;13.20;99.90
18160;DHT22;9205;52.032;4.314;2023-11-19T15:27:58;13.10;99.90
18160;DHT22;9205;52.032;4.314;2023-11-19T15:30:25;13.10;99.90
18160;DHT22;9205;52.032;4.314;2023-11-19T15:32:53;13.30;99.90
18160;DHT22;9205;52.032;4.314;2023-11-19T15:35:20;13.10;99.90
18160;DHT22;9205;52.032;4.314;2023-11-19T15:37:47;13.20;99.90
18160;DHT22;9205;52.032;4.314;2023-11-19T15:40:16;13.20;99.90
18160;DHT22;9205;52.032;4.314;2023-11-19T15:42:43;13.10;99.90
18160;DHT22;9205;52.032;4.314;2023-11-19T15:45:12;13.00;99.90
18160;DHT22;9205;52.032;4.314;2023-11-19T15:47:42;13.10;99.90
18160;DHT22;9205;52.032;4.314;2023-11-19T15:50:09;13.10;99.90
18160;DHT22;9205;52.032;4.314;2023-11-19T15:52:36;13.00;99.90
18160;DHT22;9205;52.032;4.314;2023-11-19T15:55:04;13.10;99.90
18160;DHT22;9205;52.032;4.314;2023-11-19T15:57:33;12.80;99.90
18160;DHT22;9205;52.032;4.314;2023-11-19T16:00:01;12.80;99.90
18160;DHT22;9205;52.032;4.314;2023-11-19T16:02:32;12.70;99.90
18160;DHT22;9205;52.032;4.314;2023-11-19T16:04:59;12.80;99.90